Ramona, Texas
Current Conditions -  °F | °C
As of 7:35 PM on Friday 24 Oct 2014 (Local Time) from KT65 Reporting Station
Clear Clear  
Wind Chill: 76°   Ceiling: Unl
Heat Index: 78°   Visibility: 10mi
Dew Point: 61°   Wind: 5mph
Humidity: 59%   Direction: 80°E
Pressure: 30.09"   Gusts: NA
Location:  26.1701°N, 97.9943°W
Report Text: KT65 250035Z AUTO 08004KT 10SM CLR 25/16 A3009 RMK AO2 T02450161
Loading
Personal Weather Stations






























Interactive Weather Map New forecast layout! Learn more

10-Day Weather Forecast

Advertisements
Track Severe Weather on mobile